Terminal Aerodrome Forecast
Issued by NWS Cleveland, OH

Home | Current Version | Previous Version | Graphics & Text | Print | Product List | Glossary On
Versions: 1 2 3 4 5 6 7 8 9 10 11 12 13 14 15 16
000
FTUS41 KCLE 191000 AAB
TAFYNG
TAF AMD
KYNG 191001Z 1910/2006 25007KT P6SM OVC025
     FM191200 25007KT P6SM SKC
     FM191800 29012KT P6SM OVC040
     FM200300 29005KT P6SM OVC040=

USA.gov is the U.S. government's official web portal to all federal, state and local government web resources and services.